Time;durP1;ratioP1;P1;durP2;ratioP2;P2;SDS_P1;SDS_P2;PMS_P1;PMS_P2;Temp;Humidity;BMP_temperature;BMP_pressure;BME280_temperature;BME280_humidity;BME280_pressure;Samples;Min_cycle;Max_cycle;Signal;HPM_P1;HPM_P2
2022/01/06 00:01:28;;;;;;;7.70;3.83;;;3.00;99.90;;;;;;10092607;29;20533;-77
2022/01/06 00:06:50;;;;;;;5.70;3.87;;;3.00;99.90;;;;;;10080004;29;20394;-77
2022/01/06 00:12:15;;;;;;;6.10;3.60;;;3.00;99.90;;;;;;10091458;29;20217;-77
2022/01/06 00:17:58;;;;;;;6.90;3.93;;;3.00;99.90;;;;;;10080119;29;20438;-78
2022/01/06 00:23:31;;;;;;;6.40;3.90;;;3.00;99.90;;;;;;10080091;29;20238;-76
2022/01/06 00:28:53;;;;;;;5.17;3.60;;;3.00;99.90;;;;;;10079375;29;20306;-76
2022/01/06 00:34:15;;;;;;;4.33;3.43;;;3.00;99.90;;;;;;10079390;29;20270;-77
2022/01/06 00:39:37;;;;;;;5.93;3.20;;;2.90;99.90;;;;;;10078757;29;20294;-77
2022/01/06 00:44:59;;;;;;;4.57;3.07;;;3.00;99.90;;;;;;10079518;29;20202;-77
2022/01/06 00:50:21;;;;;;;6.77;3.57;;;3.00;99.90;;;;;;10069748;29;20255;-80
2022/01/06 00:55:43;;;;;;;5.03;2.90;;;3.00;99.90;;;;;;10086799;29;20199;-77
2022/01/06 01:01:05;;;;;;;4.87;3.47;;;3.00;99.90;;;;;;10085833;29;20300;-77
2022/01/06 01:06:27;;;;;;;4.63;3.80;;;3.00;99.90;;;;;;10085364;29;20501;-77
2022/01/06 01:11:49;;;;;;;5.30;3.73;;;3.00;99.90;;;;;;10097593;29;20210;-78
2022/01/06 01:17:15;;;;;;;3.80;3.33;;;3.00;99.90;;;;;;10085369;29;20502;-79
2022/01/06 01:22:37;;;;;;;5.73;3.97;;;3.00;99.90;;;;;;10085150;29;20230;-77
2022/01/06 01:28:00;;;;;;;6.07;3.90;;;2.90;99.90;;;;;;10085749;29;20592;-78
2022/01/06 01:33:22;;;;;;;5.07;3.50;;;2.90;99.90;;;;;;10083891;29;20428;-78
2022/01/06 01:38:44;;;;;;;4.10;3.07;;;2.90;99.90;;;;;;10084236;29;20199;-78
2022/01/06 01:44:13;;;;;;;2.80;2.60;;;2.90;99.90;;;;;;10085764;29;20203;-79
2022/01/06 01:49:50;;;;;;;3.43;2.70;;;2.90;99.90;;;;;;10085191;29;20214;-76
2022/01/06 01:55:26;;;;;;;5.37;2.77;;;2.90;99.90;;;;;;10083779;29;20252;-78
2022/01/06 02:00:48;;;;;;;2.57;2.33;;;2.90;99.90;;;;;;10084580;29;20231;-77
2022/01/06 02:06:11;;;;;;;4.07;2.67;;;3.00;99.90;;;;;;10082821;29;20199;-79
2022/01/06 02:11:33;;;;;;;2.53;2.30;;;2.90;99.90;;;;;;10094950;29;20219;-78
2022/01/06 02:16:55;;;;;;;2.57;2.20;;;2.90;99.90;;;;;;10082968;29;20281;-78
2022/01/06 02:22:17;;;;;;;2.30;2.10;;;2.90;99.90;;;;;;10083676;29;20242;-80
2022/01/06 02:27:40;;;;;;;2.70;2.40;;;2.80;99.90;;;;;;10083038;29;20240;-76
2022/01/06 02:33:03;;;;;;;1.77;1.50;;;2.90;99.90;;;;;;10082516;29;20213;-79
2022/01/06 02:38:25;;;;;;;1.70;1.60;;;2.80;99.90;;;;;;10083111;29;20228;-80
2022/01/06 02:43:50;;;;;;;3.07;1.20;;;2.80;99.90;;;;;;10083172;29;20207;-78
2022/01/06 02:49:12;;;;;;;0.93;0.93;;;2.80;99.90;;;;;;10083049;29;20468;-79
2022/01/06 02:54:34;;;;;;;0.87;0.73;;;2.60;99.90;;;;;;10082557;29;20234;-80
2022/01/06 02:59:56;;;;;;;1.07;0.87;;;2.40;99.90;;;;;;10068297;29;20230;-78
2022/01/06 03:05:19;;;;;;;1.47;1.07;;;2.40;99.90;;;;;;10082205;29;20219;-76
2022/01/06 03:10:43;;;;;;;0.90;0.70;;;2.20;99.90;;;;;;10091873;29;20441;-79
2022/01/06 03:16:05;;;;;;;1.03;0.90;;;2.30;99.90;;;;;;10068103;29;20281;-78
2022/01/06 03:21:29;;;;;;;2.80;1.10;;;;;;;;;;10081627;29;20230;-79
2022/01/06 03:26:50;;;;;;;3.47;1.07;;;2.20;99.90;;;;;;10067468;29;20424;-79
2022/01/06 03:32:12;;;;;;;2.60;0.90;;;2.20;99.90;;;;;;10067112;29;20329;-79
2022/01/06 03:37:35;;;;;;;2.33;0.80;;;2.20;99.90;;;;;;10080013;29;20233;-79
2022/01/06 03:42:56;;;;;;;3.60;1.33;;;2.20;99.90;;;;;;10080978;29;20274;-80
2022/01/06 03:48:18;;;;;;;4.60;0.83;;;2.20;99.90;;;;;;10080708;29;20198;-79
2022/01/06 03:53:40;;;;;;;2.60;0.80;;;2.20;99.90;;;;;;10079902;29;20255;-78
2022/01/06 03:59:04;;;;;;;2.23;1.30;;;2.10;99.90;;;;;;10080103;29;20251;-77
2022/01/06 04:04:25;;;;;;;2.10;0.90;;;2.00;99.90;;;;;;10066233;29;20212;-77
2022/01/06 04:09:47;;;;;;;2.27;0.80;;;2.10;99.90;;;;;;10085990;29;20212;-80
2022/01/06 04:15:13;;;;;;;2.07;1.47;;;1.90;99.90;;;;;;10082184;29;20209;-78
2022/01/06 04:20:35;;;;;;;1.50;1.30;;;2.00;99.90;;;;;;10078204;29;20478;-79
2022/01/06 04:25:57;;;;;;;4.80;1.67;;;2.00;99.90;;;;;;10064936;29;20335;-80
2022/01/06 04:31:20;;;;;;;2.77;1.33;;;2.00;99.90;;;;;;10079566;29;20287;-80
2022/01/06 04:36:48;;;;;;;7.63;1.43;;;1.90;99.90;;;;;;10065794;29;20286;-79
2022/01/06 04:42:10;;;;;;;3.40;1.30;;;1.90;99.90;;;;;;10078641;29;20232;-79
2022/01/06 04:47:32;;;;;;;5.20;2.70;;;1.90;99.90;;;;;;10065323;29;20276;-77
2022/01/06 04:52:54;;;;;;;5.80;3.13;;;1.80;99.90;;;;;;10078508;29;20511;-79
2022/01/06 04:58:16;;;;;;;4.50;2.43;;;1.90;99.90;;;;;;10077920;29;20201;-79
2022/01/06 05:03:38;;;;;;;5.50;2.23;;;1.90;99.90;;;;;;10079155;29;20551;-80
2022/01/06 05:08:59;;;;;;;3.83;1.40;;;1.90;99.90;;;;;;10078620;29;20285;-78
2022/01/06 05:14:22;;;;;;;2.97;1.57;;;1.90;99.90;;;;;;10087104;29;20206;-80
2022/01/06 05:19:44;;;;;;;4.53;3.17;;;1.90;99.90;;;;;;10078654;29;20242;-78
2022/01/06 05:25:06;;;;;;;16.10;9.00;;;1.90;99.90;;;;;;10077713;29;20211;-78
2022/01/06 05:30:28;;;;;;;15.80;6.57;;;1.80;99.90;;;;;;10078294;29;20250;-80
2022/01/06 05:35:50;;;;;;;29.00;12.03;;;1.70;99.90;;;;;;10081719;29;20423;-79
2022/01/06 05:41:12;;;;;;;26.30;14.67;;;1.70;99.90;;;;;;10085540;29;20273;-79
2022/01/06 05:46:34;;;;;;;9.87;4.83;;;1.60;99.90;;;;;;10085336;29;20202;-78
2022/01/06 05:51:56;;;;;;;2.87;2.03;;;1.50;99.90;;;;;;10083983;29;20263;-80
2022/01/06 05:57:19;;;;;;;4.67;2.50;;;1.50;99.90;;;;;;10084741;29;20406;-79
2022/01/06 06:02:42;;;;;;;1.07;0.90;;;1.40;99.90;;;;;;10083437;29;20233;-78
2022/01/06 06:08:04;;;;;;;1.73;1.00;;;1.30;99.90;;;;;;10097820;29;20199;-79
2022/01/06 06:13:26;;;;;;;1.80;1.03;;;1.30;99.90;;;;;;10109566;29;20203;-79
2022/01/06 06:18:47;;;;;;;4.60;1.70;;;1.20;99.90;;;;;;10084238;29;20366;-78
2022/01/06 06:24:10;;;;;;;1.73;0.97;;;1.10;99.90;;;;;;10083252;29;20568;-78
2022/01/06 06:29:33;;;;;;;8.53;3.60;;;0.90;99.90;;;;;;10082291;29;20248;-78
2022/01/06 06:34:55;;;;;;;6.80;3.97;;;1.10;99.90;;;;;;10083684;29;20212;-80
2022/01/06 06:40:22;;;;;;;7.23;3.40;;;1.00;99.90;;;;;;10083426;29;20259;-76
2022/01/06 06:45:44;;;;;;;5.77;2.27;;;0.80;99.90;;;;;;10082049;29;20279;-81
2022/01/06 06:51:06;;;;;;;20.20;10.10;;;0.70;99.90;;;;;;10082174;29;20388;-78
2022/01/06 06:56:28;;;;;;;5.37;3.10;;;0.70;99.90;;;;;;10068634;29;20487;-78
2022/01/06 07:01:50;;;;;;;3.27;1.20;;;0.60;99.90;;;;;;10082334;29;20226;-76
2022/01/06 07:07:12;;;;;;;0.67;0.60;;;0.60;99.90;;;;;;10082349;29;20201;-77
2022/01/06 07:12:41;;;;;;;1.43;0.90;;;0.60;99.90;;;;;;10093223;29;20500;-79
2022/01/06 07:18:04;;;;;;;2.27;0.83;;;0.50;99.90;;;;;;10081939;29;20277;-79
2022/01/06 07:23:26;;;;;;;4.93;2.57;;;0.50;99.90;;;;;;10080511;29;20228;-76
2022/01/06 07:28:48;;;;;;;19.60;8.77;;;0.50;99.90;;;;;;10081061;29;20308;-77
2022/01/06 07:34:10;;;;;;;8.97;5.17;;;0.50;99.90;;;;;;10081452;29;20195;-78
2022/01/06 07:39:33;;;;;;;15.17;5.80;;;0.30;99.90;;;;;;10081244;29;20230;-77
2022/01/06 07:44:56;;;;;;;12.00;4.63;;;0.20;99.90;;;;;;10079805;29;20209;-77
2022/01/06 07:50:19;;;;;;;11.77;5.13;;;0.10;99.90;;;;;;10081013;29;20205;-77
2022/01/06 07:55:41;;;;;;;7.87;3.90;;;0.00;99.90;;;;;;10079319;29;20203;-76
2022/01/06 08:01:03;;;;;;;9.53;4.03;;;0.00;99.90;;;;;;10080087;29;20298;-77
2022/01/06 08:06:25;;;;;;;15.70;6.93;;;0.10;99.90;;;;;;10066458;29;20212;-77
2022/01/06 08:11:48;;;;;;;10.63;5.17;;;0.10;99.90;;;;;;10079866;29;20213;-79
2022/01/06 08:17:10;;;;;;;6.13;2.90;;;0.10;99.90;;;;;;10080160;29;20265;-77
2022/01/06 08:22:32;;;;;;;9.03;5.03;;;0.10;99.90;;;;;;10078660;29;20243;-77
2022/01/06 08:27:53;;;;;;;9.87;5.90;;;0.30;99.90;;;;;;10079290;29;20292;-78
2022/01/06 08:33:15;;;;;;;6.27;3.80;;;0.30;99.90;;;;;;10079997;29;20493;-77
2022/01/06 08:38:38;;;;;;;9.67;3.57;;;0.40;99.90;;;;;;10078678;29;20191;-78
2022/01/06 08:44:00;;;;;;;6.97;3.30;;;0.40;99.90;;;;;;10078526;29;20653;-77
2022/01/06 08:49:22;;;;;;;4.20;2.63;;;0.40;99.90;;;;;;10078198;29;20204;-77
2022/01/06 08:54:44;;;;;;;6.53;4.07;;;0.20;99.90;;;;;;10078034;29;20202;-80
2022/01/06 09:00:10;;;;;;;5.37;3.87;;;0.30;99.90;;;;;;10079118;29;20223;-77
2022/01/06 09:05:31;;;;;;;3.33;2.20;;;0.10;99.90;;;;;;10079360;29;20543;-78
2022/01/06 09:10:54;;;;;;;7.13;4.83;;;0.20;99.90;;;;;;10093539;29;20228;-77
2022/01/06 09:16:20;;;;;;;11.33;5.30;;;0.30;99.90;;;;;;10086296;29;20495;-77
2022/01/06 09:21:43;;;;;;;5.77;3.20;;;0.30;99.90;;;;;;10085805;29;20257;-77
2022/01/06 09:27:05;;;;;;;8.60;4.53;;;0.50;99.90;;;;;;10085871;29;20372;-77
2022/01/06 09:32:27;;;;;;;7.90;4.50;;;0.50;99.90;;;;;;10085870;29;20547;-77
2022/01/06 09:37:49;;;;;;;9.90;4.43;;;0.60;99.90;;;;;;10084395;29;20197;-77
2022/01/06 09:43:12;;;;;;;5.97;3.80;;;0.50;99.90;;;;;;10071266;29;20274;-76
2022/01/06 09:48:36;;;;;;;5.47;3.40;;;0.50;99.90;;;;;;10084201;29;20222;-77
2022/01/06 09:54:00;;;;;;;5.17;2.80;;;0.50;99.90;;;;;;10085970;29;20234;-79
2022/01/06 09:59:22;;;;;;;6.00;3.13;;;0.50;99.90;;;;;;10084476;29;20197;-78
2022/01/06 10:04:45;;;;;;;5.60;3.40;;;0.70;99.90;;;;;;10084736;29;20226;-79
2022/01/06 10:10:09;;;;;;;7.53;3.00;;;0.70;99.90;;;;;;10092457;29;20205;-77
2022/01/06 10:15:31;;;;;;;4.63;2.73;;;0.60;99.90;;;;;;10074187;29;20285;-77
2022/01/06 10:20:53;;;;;;;5.43;4.23;;;0.60;99.90;;;;;;10082759;29;20239;-77
2022/01/06 10:26:15;;;;;;;5.73;3.13;;;0.50;99.90;;;;;;10069486;29;20209;-77
2022/01/06 10:31:37;;;;;;;7.77;4.40;;;0.40;99.90;;;;;;10083744;29;20234;-77
2022/01/06 10:37:01;;;;;;;16.47;7.17;;;0.70;99.90;;;;;;10083530;29;20202;-79
2022/01/06 10:42:29;;;;;;;12.20;5.73;;;0.90;99.90;;;;;;10082592;29;20244;-79
2022/01/06 10:47:57;;;;;;;8.23;4.67;;;0.90;99.90;;;;;;10082348;29;20203;-81
2022/01/06 10:53:19;;;;;;;11.67;4.37;;;0.80;99.90;;;;;;10082553;29;20212;-79
2022/01/06 10:58:45;;;;;;;10.60;4.87;;;0.70;99.90;;;;;;10082351;29;20229;-77
2022/01/06 11:04:15;;;;;;;10.07;4.77;;;0.60;99.90;;;;;;10082425;29;20240;-78
2022/01/06 11:09:38;;;;;;;7.70;3.97;;;0.70;99.90;;;;;;10082003;29;20269;-80
2022/01/06 11:15:00;;;;;;;8.40;4.07;;;0.90;99.90;;;;;;10063660;29;20219;-80
2022/01/06 11:20:26;;;;;;;14.73;5.53;;;1.10;99.90;;;;;;10081775;29;20234;-80
2022/01/06 11:26:05;;;;;;;8.70;3.67;;;1.30;99.90;;;;;;10078596;29;20274;-79
2022/01/06 11:31:36;;;;;;;12.37;4.77;;;1.20;99.90;;;;;;10079453;29;20579;-76
2022/01/06 11:37:09;;;;;;;9.60;3.53;;;1.10;99.90;;;;;;10069236;29;20200;-77
2022/01/06 11:42:31;;;;;;;4.53;2.00;;;1.10;99.90;;;;;;10080611;29;20532;-77
2022/01/06 11:48:07;;;;;;;6.53;3.27;;;0.90;99.90;;;;;;10080366;29;20208;-76
2022/01/06 11:53:33;;;;;;;10.63;3.80;;;0.80;99.90;;;;;;10080456;29;20567;-77
2022/01/06 11:59:04;;;;;;;12.03;4.37;;;0.70;99.90;;;;;;10068945;29;20201;-77
2022/01/06 12:04:27;;;;;;;15.33;5.63;;;0.80;99.90;;;;;;10078963;29;20302;-78
2022/01/06 12:10:02;;;;;;;18.27;7.37;;;1.00;99.90;;;;;;10078597;29;20223;-77
2022/01/06 12:15:26;;;;;;;13.13;5.13;;;1.10;99.90;;;;;;10078422;29;20293;-77
2022/01/06 12:20:48;;;;;;;6.30;2.33;;;1.10;99.90;;;;;;10079685;29;20521;-77
2022/01/06 12:26:12;;;;;;;6.63;3.23;;;1.10;99.90;;;;;;10077240;29;20544;-78
2022/01/06 12:31:35;;;;;;;21.33;10.73;;;1.00;99.90;;;;;;10078256;29;20252;-77
2022/01/06 12:36:58;;;;;;;34.10;17.03;;;0.80;99.90;;;;;;10048994;29;20430;-77
2022/01/06 12:42:20;;;;;;;80.03;36.90;;;0.60;99.90;;;;;;10065298;29;20240;-77
2022/01/06 12:47:48;;;;;;;133.87;54.50;;;0.50;99.90;;;;;;10084457;29;20196;-77
2022/01/06 12:53:11;;;;;;;21.47;13.00;;;0.30;99.90;;;;;;10072407;29;20215;-78
2022/01/06 12:58:39;;;;;;;8.27;4.10;;;0.20;99.90;;;;;;10085810;29;20195;-78
2022/01/06 13:04:02;;;;;;;5.53;2.60;;;0.40;99.90;;;;;;10085550;29;20418;-77
2022/01/06 13:09:27;;;;;;;10.90;3.73;;;0.30;99.90;;;;;;10088672;29;20205;-78
2022/01/06 13:14:53;;;;;;;7.70;2.93;;;0.30;99.90;;;;;;10086412;29;20206;-78
2022/01/06 13:20:16;;;;;;;7.87;3.70;;;0.20;99.90;;;;;;10084379;29;20201;-78
2022/01/06 13:25:41;;;;;;;54.30;8.77;;;0.30;99.90;;;;;;10097327;29;20276;-78
2022/01/06 13:31:03;;;;;;;10.00;3.50;;;0.10;99.90;;;;;;10095392;29;20243;-79
2022/01/06 13:36:33;;;;;;;6.10;3.57;;;0.10;99.90;;;;;;10083210;29;20201;-79
2022/01/06 13:41:55;;;;;;;14.07;3.87;;;0.00;99.90;;;;;;10068883;29;20248;-78
2022/01/06 13:47:30;;;;;;;17.50;5.07;;;0.00;99.90;;;;;;10069115;29;20385;-80
2022/01/06 13:52:52;;;;;;;7.73;2.47;;;-0.10;99.90;;;;;;10081533;29;20209;-78
2022/01/06 13:58:14;;;;;;;5.43;2.33;;;;;;;;;;10067577;29;20215;-78
2022/01/06 14:03:36;;;;;;;9.57;3.80;;;-0.10;99.90;;;;;;10081169;29;20458;-78
2022/01/06 14:08:59;;;;;;;5.50;2.30;;;0.00;99.90;;;;;;10079317;29;20231;-80
2022/01/06 14:14:21;;;;;;;8.40;2.90;;;0.00;99.90;;;;;;10070172;29;20231;-79
2022/01/06 14:19:43;;;;;;;15.13;4.90;;;-0.20;99.90;;;;;;10081640;29;20206;-79
2022/01/06 14:25:06;;;;;;;22.17;8.27;;;-0.30;99.90;;;;;;10079970;29;20297;-79
2022/01/06 14:30:28;;;;;;;6.47;3.10;;;-0.30;99.90;;;;;;10034794;29;1287288;-80
2022/01/06 14:35:50;;;;;;;4.27;2.17;;;;;;;;;;10083627;29;20432;-80
2022/01/06 14:41:27;;;;;;;8.00;2.40;;;;;;;;;;10057949;29;20281;-78
2022/01/06 14:46:49;;;;;;;11.57;4.90;;;-0.60;99.90;;;;;;10083003;29;20206;-77
2022/01/06 14:52:11;;;;;;;19.07;4.93;;;-0.80;99.90;;;;;;10082556;29;20252;-78
2022/01/06 14:57:34;;;;;;;11.30;3.93;;;-0.90;99.90;;;;;;10081318;29;20252;-77
2022/01/06 15:02:56;;;;;;;23.23;7.43;;;-0.80;99.90;;;;;;10055661;29;20226;-78
2022/01/06 15:08:19;;;;;;;7.40;3.97;;;-0.90;99.90;;;;;;10093377;29;20474;-78
2022/01/06 15:13:41;;;;;;;10.03;3.63;;;-1.00;99.90;;;;;;10081004;29;20457;-79
2022/01/06 15:19:03;;;;;;;12.90;5.43;;;-1.10;99.90;;;;;;10081766;29;20200;-78
2022/01/06 15:24:25;;;;;;;9.10;3.90;;;-1.10;99.90;;;;;;10067479;29;20227;-79
2022/01/06 15:29:47;;;;;;;13.43;5.53;;;-1.00;99.90;;;;;;10065695;29;20228;-78
2022/01/06 15:35:11;;;;;;;12.80;5.80;;;-1.00;99.90;;;;;;10067184;29;20204;-78
2022/01/06 15:40:33;;;;;;;44.60;10.50;;;-1.00;99.90;;;;;;10079308;29;20205;-80
2022/01/06 15:45:55;;;;;;;20.90;8.87;;;-1.00;99.90;;;;;;10080557;29;20205;-77
2022/01/06 15:51:20;;;;;;;14.07;7.60;;;-0.90;99.90;;;;;;10077849;29;20468;-77
2022/01/06 15:56:42;;;;;;;11.53;5.27;;;-0.90;99.90;;;;;;10075628;29;20203;-76
2022/01/06 16:07:48;;;;;;;17.20;8.33;;;-0.80;99.90;;;;;;10077881;29;20196;-77
2022/01/06 16:13:12;;;;;;;17.83;7.13;;;-0.80;99.90;;;;;;10087317;29;20211;-77
2022/01/06 16:18:34;;;;;;;19.43;7.83;;;-0.80;99.90;;;;;;10077192;29;20206;-77
2022/01/06 16:23:55;;;;;;;15.27;7.70;;;-0.70;99.90;;;;;;10077891;29;20302;-77
2022/01/06 16:29:18;;;;;;;11.57;6.67;;;-0.80;99.90;;;;;;10079335;29;20240;-77
2022/01/06 16:34:39;;;;;;;15.97;5.87;;;-0.80;99.90;;;;;;10079864;29;20276;-76
2022/01/06 16:40:03;;;;;;;14.73;6.47;;;-0.80;99.90;;;;;;10078264;29;20275;-77
2022/01/06 16:45:27;;;;;;;16.87;7.47;;;-0.80;99.90;;;;;;10078428;29;20237;-77
2022/01/06 16:50:50;;;;;;;19.10;8.23;;;-0.80;99.90;;;;;;10065307;29;20211;-77
2022/01/06 16:56:12;;;;;;;18.07;7.27;;;-0.80;99.90;;;;;;10079106;29;20252;-77
2022/01/06 17:01:34;;;;;;;15.63;6.27;;;-0.90;99.90;;;;;;10078079;29;20225;-77
2022/01/06 17:06:56;;;;;;;11.33;4.63;;;-0.90;99.90;;;;;;10078664;29;20283;-77
2022/01/06 17:12:18;;;;;;;42.17;14.03;;;-1.00;99.90;;;;;;10090366;29;20290;-77
2022/01/06 17:17:40;;;;;;;63.17;22.80;;;-1.10;99.90;;;;;;10065411;29;20204;-77
2022/01/06 17:23:03;;;;;;;60.07;26.50;;;-1.20;99.90;;;;;;10078693;29;20230;-77
2022/01/06 17:28:25;;;;;;;66.80;31.47;;;-1.20;99.90;;;;;;10078760;29;20246;-77
2022/01/06 17:33:47;;;;;;;62.93;27.80;;;-1.20;99.90;;;;;;10084303;29;20251;-77
2022/01/06 17:39:09;;;;;;;53.10;23.37;;;-1.30;99.90;;;;;;10085520;29;20373;-78
2022/01/06 17:44:31;;;;;;;40.30;16.83;;;-1.30;99.90;;;;;;10084550;29;20224;-77
2022/01/06 17:49:53;;;;;;;56.40;22.53;;;-1.30;99.90;;;;;;10070919;29;20227;-77
2022/01/06 17:55:15;;;;;;;49.53;19.67;;;-1.30;99.90;;;;;;10084204;29;20218;-77
2022/01/06 18:00:39;;;;;;;27.27;10.93;;;-1.40;99.90;;;;;;10084699;29;20201;-77
2022/01/06 18:06:05;;;;;;;21.37;7.13;;;-1.40;99.90;;;;;;10085553;29;20202;-78
2022/01/06 18:11:27;;;;;;;13.17;5.90;;;-1.30;99.90;;;;;;10094643;29;20208;-78
2022/01/06 18:16:56;;;;;;;12.43;6.03;;;-1.20;99.90;;;;;;10121889;29;20195;-77
2022/01/06 18:22:18;;;;;;;14.83;6.50;;;-1.30;99.90;;;;;;10108123;29;20228;-78
2022/01/06 18:27:41;;;;;;;16.40;6.57;;;-1.40;99.90;;;;;;10122044;29;20200;-76
2022/01/06 18:33:03;;;;;;;13.87;6.07;;;-1.40;99.90;;;;;;10120732;29;20206;-76
2022/01/06 18:38:25;;;;;;;16.33;6.80;;;-1.40;99.90;;;;;;10045316;29;20369;-77
2022/01/06 18:43:47;;;;;;;16.07;7.63;;;-1.40;99.90;;;;;;10043990;29;20233;-76
2022/01/06 18:49:10;;;;;;;17.97;6.93;;;-1.40;99.90;;;;;;10043780;29;20205;-76
2022/01/06 18:54:32;;;;;;;12.33;5.53;;;-1.30;99.90;;;;;;10043460;29;20236;-77
2022/01/06 18:59:55;;;;;;;12.87;5.63;;;-1.40;99.90;;;;;;10044571;29;20203;-77
2022/01/06 19:05:33;;;;;;;16.63;6.73;;;-1.30;99.90;;;;;;10072160;29;20418;-77
2022/01/06 19:10:55;;;;;;;17.63;6.43;;;-1.30;99.90;;;;;;10092692;29;20295;-77
2022/01/06 19:16:17;;;;;;;32.53;13.77;;;-1.30;99.90;;;;;;10081696;29;20290;-77
2022/01/06 19:21:39;;;;;;;25.73;10.57;;;-1.20;99.90;;;;;;10067619;29;20451;-77
2022/01/06 19:27:01;;;;;;;17.50;8.40;;;-1.20;99.90;;;;;;10081764;29;20202;-77
2022/01/06 19:32:24;;;;;;;16.27;7.23;;;-1.00;99.90;;;;;;10081420;29;20242;-77
2022/01/06 19:37:47;;;;;;;9.17;3.97;;;-0.90;99.90;;;;;;10081548;29;20206;-77
2022/01/06 19:43:10;;;;;;;12.07;4.40;;;-1.00;99.90;;;;;;10080343;29;20239;-77
2022/01/06 19:48:31;;;;;;;13.33;5.53;;;-0.90;99.90;;;;;;10092856;29;20454;-77
2022/01/06 19:53:53;;;;;;;9.93;3.37;;;-0.90;99.90;;;;;;10079241;29;20205;-78
2022/01/06 19:59:20;;;;;;;7.83;3.30;;;-0.90;99.90;;;;;;10080827;29;20245;-77
2022/01/06 20:04:43;;;;;;;9.43;4.00;;;-0.80;99.90;;;;;;10079535;29;20466;-76
2022/01/06 20:10:05;;;;;;;14.80;5.73;;;-0.90;99.90;;;;;;10080249;29;20215;-77
2022/01/06 20:15:27;;;;;;;12.17;5.03;;;-0.90;99.90;;;;;;10069465;29;20204;-76
2022/01/06 20:20:50;;;;;;;12.70;5.17;;;-0.90;99.90;;;;;;10078871;29;20212;-78
2022/01/06 20:26:12;;;;;;;12.93;4.90;;;-1.00;99.90;;;;;;10041779;29;20556;-77
2022/01/06 20:31:34;;;;;;;14.07;4.73;;;-1.00;99.90;;;;;;10041649;29;20330;-76
2022/01/06 20:37:05;;;;;;;12.07;4.20;;;-1.10;99.90;;;;;;10041423;29;20271;-78
2022/01/06 20:42:27;;;;;;;8.83;4.30;;;-1.20;99.90;;;;;;10041510;29;20235;-77
2022/01/06 20:48:02;;;;;;;10.53;3.90;;;-1.20;99.90;;;;;;10040398;29;20253;-76
2022/01/06 20:53:25;;;;;;;8.27;3.60;;;-1.20;99.90;;;;;;10058580;29;20211;-77
2022/01/06 20:58:48;;;;;;;11.43;3.90;;;-1.20;99.90;;;;;;10079260;29;20436;-76
2022/01/06 21:04:11;;;;;;;10.10;4.03;;;;;;;;;;10079284;29;20231;-76
2022/01/06 21:09:33;;;;;;;9.57;4.20;;;-1.10;99.90;;;;;;10085228;29;20240;-77
2022/01/06 21:14:55;;;;;;;11.13;3.80;;;-1.30;99.90;;;;;;10098225;29;20426;-77
2022/01/06 21:20:19;;;;;;;10.33;4.37;;;-1.40;99.90;;;;;;10086495;29;20203;-76
2022/01/06 21:25:42;;;;;;;12.47;4.87;;;-1.40;99.90;;;;;;10084861;29;20252;-77
2022/01/06 21:31:04;;;;;;;10.70;4.67;;;-1.50;99.90;;;;;;10084749;29;20257;-77
2022/01/06 21:36:25;;;;;;;8.27;3.90;;;-1.50;99.90;;;;;;10085038;29;20257;-76
2022/01/06 21:41:48;;;;;;;9.37;3.80;;;-1.50;99.90;;;;;;10085503;29;20213;-76
2022/01/06 21:47:10;;;;;;;8.73;3.50;;;-1.50;99.90;;;;;;10085484;29;20260;-77
2022/01/06 21:52:31;;;;;;;7.83;3.30;;;-1.50;99.90;;;;;;10083820;29;20251;-77
2022/01/06 21:57:54;;;;;;;6.50;3.20;;;-1.50;99.90;;;;;;10085120;29;20204;-76
2022/01/06 22:03:17;;;;;;;7.03;3.43;;;-1.50;99.90;;;;;;10085051;29;20494;-77
2022/01/06 22:08:40;;;;;;;7.27;3.13;;;-1.50;99.90;;;;;;10084749;29;20200;-77
2022/01/06 22:14:03;;;;;;;8.30;2.80;;;-1.50;99.90;;;;;;10082910;29;20216;-77
2022/01/06 22:19:25;;;;;;;10.10;4.20;;;-1.50;99.90;;;;;;10096133;29;20206;-77
2022/01/06 22:24:47;;;;;;;16.60;5.80;;;-1.50;99.90;;;;;;10082750;29;20271;-77
2022/01/06 22:30:12;;;;;;;14.87;5.47;;;-1.60;99.90;;;;;;10082916;29;20244;-76
2022/01/06 22:35:34;;;;;;;13.00;5.80;;;-1.70;99.90;;;;;;10082839;29;20246;-78
2022/01/06 22:40:56;;;;;;;10.07;4.50;;;-1.70;99.90;;;;;;10081761;29;20390;-76
2022/01/06 22:46:19;;;;;;;7.93;3.90;;;-1.80;99.90;;;;;;10082424;29;20239;-77
2022/01/06 22:51:41;;;;;;;11.30;4.87;;;-1.80;99.90;;;;;;10082091;29;20235;-77
2022/01/06 22:57:08;;;;;;;8.77;4.40;;;-1.80;99.90;;;;;;10082600;29;20201;-77
2022/01/06 23:02:30;;;;;;;14.83;5.90;;;-1.80;99.90;;;;;;10068600;29;20241;-77
2022/01/06 23:07:52;;;;;;;20.57;7.40;;;-1.80;99.90;;;;;;10068499;29;20217;-77
2022/01/06 23:13:15;;;;;;;13.30;5.17;;;-1.90;99.90;;;;;;10088782;29;20287;-77
2022/01/06 23:18:37;;;;;;;7.77;3.50;;;-1.90;99.90;;;;;;10081203;29;20200;-77
2022/01/06 23:24:01;;;;;;;7.23;3.37;;;-1.80;99.90;;;;;;10081734;29;20233;-77
2022/01/06 23:29:23;;;;;;;9.83;4.23;;;-1.70;99.90;;;;;;10080879;29;20231;-77
2022/01/06 23:34:45;;;;;;;9.77;4.20;;;-1.70;99.90;;;;;;10080613;29;20207;-77
2022/01/06 23:40:10;;;;;;;9.03;3.40;;;-1.70;99.90;;;;;;10080929;29;20199;-77
2022/01/06 23:45:33;;;;;;;9.50;3.27;;;-1.70;99.90;;;;;;10080746;29;20585;-77
2022/01/06 23:50:55;;;;;;;10.37;3.67;;;-1.80;99.90;;;;;;10081190;29;20203;-77
2022/01/06 23:56:17;;;;;;;8.63;3.83;;;-1.80;99.90;;;;;;10080660;29;20196;-77
